sensor_id;sensor_type;location;lat;lon;timestamp;P1;durP1;ratioP1;P2;durP2;ratioP2
313;SDS011;143;51.634;7.112;2023-11-21T00:01:51;21.50;;;10.07;;
313;SDS011;143;51.634;7.112;2023-11-21T00:04:16;27.37;;;12.07;;
313;SDS011;143;51.634;7.112;2023-11-21T00:06:42;24.70;;;11.40;;
313;SDS011;143;51.634;7.112;2023-11-21T00:09:08;22.80;;;11.40;;
313;SDS011;143;51.634;7.112;2023-11-21T00:11:36;20.53;;;10.00;;
313;SDS011;143;51.634;7.112;2023-11-21T00:14:02;23.67;;;10.17;;
313;SDS011;143;51.634;7.112;2023-11-21T00:16:28;22.33;;;9.40;;
313;SDS011;143;51.634;7.112;2023-11-21T00:18:54;22.87;;;11.13;;
313;SDS011;143;51.634;7.112;2023-11-21T00:21:20;16.07;;;10.43;;
313;SDS011;143;51.634;7.112;2023-11-21T00:23:45;22.00;;;11.63;;
313;SDS011;143;51.634;7.112;2023-11-21T00:26:11;25.13;;;10.73;;
313;SDS011;143;51.634;7.112;2023-11-21T00:28:36;19.50;;;9.97;;
313;SDS011;143;51.634;7.112;2023-11-21T00:31:02;27.10;;;11.20;;
313;SDS011;143;51.634;7.112;2023-11-21T00:33:29;36.80;;;10.90;;
313;SDS011;143;51.634;7.112;2023-11-21T00:35:54;22.10;;;10.80;;
313;SDS011;143;51.634;7.112;2023-11-21T00:38:20;29.00;;;11.57;;
313;SDS011;143;51.634;7.112;2023-11-21T00:40:46;26.83;;;11.80;;
313;SDS011;143;51.634;7.112;2023-11-21T00:43:11;24.10;;;11.53;;
313;SDS011;143;51.634;7.112;2023-11-21T00:45:37;26.83;;;11.43;;
313;SDS011;143;51.634;7.112;2023-11-21T00:48:02;23.03;;;12.23;;
313;SDS011;143;51.634;7.112;2023-11-21T00:50:29;27.47;;;12.37;;
313;SDS011;143;51.634;7.112;2023-11-21T00:52:55;25.63;;;12.33;;
313;SDS011;143;51.634;7.112;2023-11-21T00:55:21;28.73;;;11.50;;
313;SDS011;143;51.634;7.112;2023-11-21T00:57:47;37.40;;;12.73;;
313;SDS011;143;51.634;7.112;2023-11-21T01:00:12;32.20;;;12.40;;
313;SDS011;143;51.634;7.112;2023-11-21T01:02:41;34.73;;;14.20;;
313;SDS011;143;51.634;7.112;2023-11-21T01:05:10;27.57;;;13.07;;
313;SDS011;143;51.634;7.112;2023-11-21T01:07:36;28.50;;;12.97;;
313;SDS011;143;51.634;7.112;2023-11-21T01:10:02;32.13;;;11.33;;
313;SDS011;143;51.634;7.112;2023-11-21T01:12:33;32.77;;;12.93;;
313;SDS011;143;51.634;7.112;2023-11-21T01:15:00;24.83;;;11.90;;
313;SDS011;143;51.634;7.112;2023-11-21T01:17:26;26.10;;;11.53;;
313;SDS011;143;51.634;7.112;2023-11-21T01:19:52;32.87;;;14.07;;
313;SDS011;143;51.634;7.112;2023-11-21T01:22:17;31.00;;;12.13;;
313;SDS011;143;51.634;7.112;2023-11-21T01:24:47;30.03;;;12.37;;
313;SDS011;143;51.634;7.112;2023-11-21T01:27:12;26.30;;;12.60;;
313;SDS011;143;51.634;7.112;2023-11-21T01:29:38;30.23;;;13.63;;
313;SDS011;143;51.634;7.112;2023-11-21T01:32:03;21.53;;;11.50;;
313;SDS011;143;51.634;7.112;2023-11-21T01:34:31;25.60;;;14.10;;
313;SDS011;143;51.634;7.112;2023-11-21T01:36:57;28.30;;;13.70;;
313;SDS011;143;51.634;7.112;2023-11-21T01:39:22;27.00;;;12.27;;
313;SDS011;143;51.634;7.112;2023-11-21T01:41:49;26.10;;;13.57;;
313;SDS011;143;51.634;7.112;2023-11-21T01:44:16;27.27;;;12.67;;
313;SDS011;143;51.634;7.112;2023-11-21T01:46:44;21.90;;;11.27;;
313;SDS011;143;51.634;7.112;2023-11-21T01:49:11;26.57;;;11.43;;
313;SDS011;143;51.634;7.112;2023-11-21T01:51:38;27.73;;;12.17;;
313;SDS011;143;51.634;7.112;2023-11-21T01:54:06;24.07;;;11.90;;
313;SDS011;143;51.634;7.112;2023-11-21T01:56:32;23.63;;;11.40;;
313;SDS011;143;51.634;7.112;2023-11-21T01:58:58;22.60;;;11.43;;
313;SDS011;143;51.634;7.112;2023-11-21T02:01:24;28.43;;;13.10;;
313;SDS011;143;51.634;7.112;2023-11-21T02:03:51;26.13;;;12.67;;
313;SDS011;143;51.634;7.112;2023-11-21T02:06:16;29.00;;;11.90;;
313;SDS011;143;51.634;7.112;2023-11-21T02:08:43;23.90;;;10.57;;
313;SDS011;143;51.634;7.112;2023-11-21T02:11:09;26.73;;;10.73;;
313;SDS011;143;51.634;7.112;2023-11-21T02:13:37;24.33;;;9.97;;
313;SDS011;143;51.634;7.112;2023-11-21T02:16:07;18.87;;;9.03;;
313;SDS011;143;51.634;7.112;2023-11-21T02:18:34;20.60;;;10.10;;
313;SDS011;143;51.634;7.112;2023-11-21T02:21:01;25.53;;;10.40;;
313;SDS011;143;51.634;7.112;2023-11-21T02:23:29;25.27;;;11.93;;
313;SDS011;143;51.634;7.112;2023-11-21T02:25:55;31.77;;;11.43;;
313;SDS011;143;51.634;7.112;2023-11-21T02:28:21;23.30;;;10.30;;
313;SDS011;143;51.634;7.112;2023-11-21T02:30:51;24.57;;;12.03;;
313;SDS011;143;51.634;7.112;2023-11-21T02:33:20;29.40;;;11.33;;
313;SDS011;143;51.634;7.112;2023-11-21T02:35:46;20.87;;;11.40;;
313;SDS011;143;51.634;7.112;2023-11-21T02:38:12;20.73;;;10.77;;
313;SDS011;143;51.634;7.112;2023-11-21T02:40:37;20.87;;;10.93;;
313;SDS011;143;51.634;7.112;2023-11-21T02:43:03;22.73;;;10.03;;
313;SDS011;143;51.634;7.112;2023-11-21T02:45:30;25.40;;;10.13;;
313;SDS011;143;51.634;7.112;2023-11-21T02:47:56;20.13;;;9.93;;
313;SDS011;143;51.634;7.112;2023-11-21T02:50:23;18.23;;;9.50;;
313;SDS011;143;51.634;7.112;2023-11-21T02:52:48;17.83;;;10.80;;
313;SDS011;143;51.634;7.112;2023-11-21T02:55:14;21.17;;;9.77;;
313;SDS011;143;51.634;7.112;2023-11-21T02:57:40;24.57;;;10.13;;
313;SDS011;143;51.634;7.112;2023-11-21T03:00:06;16.77;;;10.00;;
313;SDS011;143;51.634;7.112;2023-11-21T03:02:32;17.57;;;9.83;;
313;SDS011;143;51.634;7.112;2023-11-21T03:05:01;14.27;;;8.73;;
313;SDS011;143;51.634;7.112;2023-11-21T03:07:27;19.67;;;9.30;;
313;SDS011;143;51.634;7.112;2023-11-21T03:09:53;12.90;;;8.07;;
313;SDS011;143;51.634;7.112;2023-11-21T03:12:18;16.33;;;9.20;;
313;SDS011;143;51.634;7.112;2023-11-21T03:14:44;11.87;;;7.30;;
313;SDS011;143;51.634;7.112;2023-11-21T03:17:10;8.17;;;6.07;;
313;SDS011;143;51.634;7.112;2023-11-21T03:19:36;9.53;;;6.23;;
313;SDS011;143;51.634;7.112;2023-11-21T03:22:02;11.23;;;7.40;;
313;SDS011;143;51.634;7.112;2023-11-21T03:24:29;12.40;;;7.83;;
313;SDS011;143;51.634;7.112;2023-11-21T03:26:54;13.77;;;8.23;;
313;SDS011;143;51.634;7.112;2023-11-21T03:29:20;12.60;;;7.80;;
313;SDS011;143;51.634;7.112;2023-11-21T03:31:46;16.80;;;7.63;;
313;SDS011;143;51.634;7.112;2023-11-21T03:34:15;12.73;;;7.40;;
313;SDS011;143;51.634;7.112;2023-11-21T03:36:44;13.77;;;8.47;;
313;SDS011;143;51.634;7.112;2023-11-21T03:39:11;15.30;;;8.90;;
313;SDS011;143;51.634;7.112;2023-11-21T03:41:36;13.07;;;7.87;;
313;SDS011;143;51.634;7.112;2023-11-21T03:44:02;10.50;;;7.13;;
313;SDS011;143;51.634;7.112;2023-11-21T03:46:28;20.07;;;9.80;;
313;SDS011;143;51.634;7.112;2023-11-21T03:48:53;16.43;;;9.17;;
313;SDS011;143;51.634;7.112;2023-11-21T03:51:20;14.67;;;9.67;;
313;SDS011;143;51.634;7.112;2023-11-21T03:53:46;13.80;;;8.60;;
313;SDS011;143;51.634;7.112;2023-11-21T03:56:13;18.13;;;10.17;;
313;SDS011;143;51.634;7.112;2023-11-21T03:58:39;17.00;;;10.37;;
313;SDS011;143;51.634;7.112;2023-11-21T04:01:05;15.07;;;9.70;;
313;SDS011;143;51.634;7.112;2023-11-21T04:03:30;23.50;;;12.43;;
313;SDS011;143;51.634;7.112;2023-11-21T04:05:56;27.50;;;11.27;;
313;SDS011;143;51.634;7.112;2023-11-21T04:08:22;20.33;;;10.63;;
313;SDS011;143;51.634;7.112;2023-11-21T04:10:47;24.03;;;10.87;;
313;SDS011;143;51.634;7.112;2023-11-21T04:13:13;22.40;;;10.70;;
313;SDS011;143;51.634;7.112;2023-11-21T04:15:39;24.63;;;12.90;;
313;SDS011;143;51.634;7.112;2023-11-21T04:18:04;26.33;;;13.17;;
313;SDS011;143;51.634;7.112;2023-11-21T04:20:30;28.00;;;13.80;;
313;SDS011;143;51.634;7.112;2023-11-21T04:22:56;28.50;;;13.53;;
313;SDS011;143;51.634;7.112;2023-11-21T04:25:21;28.60;;;14.70;;
313;SDS011;143;51.634;7.112;2023-11-21T04:27:48;32.50;;;14.40;;
313;SDS011;143;51.634;7.112;2023-11-21T04:30:14;26.60;;;14.77;;
313;SDS011;143;51.634;7.112;2023-11-21T04:32:40;29.57;;;16.03;;
313;SDS011;143;51.634;7.112;2023-11-21T04:35:06;29.43;;;14.70;;
313;SDS011;143;51.634;7.112;2023-11-21T04:37:33;27.10;;;14.30;;
313;SDS011;143;51.634;7.112;2023-11-21T04:39:59;22.17;;;11.47;;
313;SDS011;143;51.634;7.112;2023-11-21T04:42:24;17.77;;;9.90;;
313;SDS011;143;51.634;7.112;2023-11-21T04:44:50;20.43;;;9.67;;
313;SDS011;143;51.634;7.112;2023-11-21T04:47:17;19.63;;;8.40;;
313;SDS011;143;51.634;7.112;2023-11-21T04:49:45;18.70;;;9.27;;
313;SDS011;143;51.634;7.112;2023-11-21T04:52:12;16.70;;;9.13;;
313;SDS011;143;51.634;7.112;2023-11-21T04:54:37;21.53;;;8.97;;
313;SDS011;143;51.634;7.112;2023-11-21T04:57:04;19.23;;;8.97;;
313;SDS011;143;51.634;7.112;2023-11-21T04:59:32;17.23;;;9.60;;
313;SDS011;143;51.634;7.112;2023-11-21T05:01:58;18.10;;;10.33;;
313;SDS011;143;51.634;7.112;2023-11-21T05:04:25;19.87;;;9.63;;
313;SDS011;143;51.634;7.112;2023-11-21T05:06:50;21.10;;;11.20;;
313;SDS011;143;51.634;7.112;2023-11-21T05:09:16;20.47;;;11.50;;
313;SDS011;143;51.634;7.112;2023-11-21T05:11:42;28.90;;;11.43;;
313;SDS011;143;51.634;7.112;2023-11-21T05:14:08;20.23;;;10.70;;
313;SDS011;143;51.634;7.112;2023-11-21T05:16:33;17.27;;;10.73;;
313;SDS011;143;51.634;7.112;2023-11-21T05:19:00;24.50;;;12.57;;
313;SDS011;143;51.634;7.112;2023-11-21T05:21:26;29.90;;;11.23;;
313;SDS011;143;51.634;7.112;2023-11-21T05:23:52;23.27;;;11.90;;
313;SDS011;143;51.634;7.112;2023-11-21T05:26:18;21.50;;;11.60;;
313;SDS011;143;51.634;7.112;2023-11-21T05:28:43;24.93;;;12.10;;
313;SDS011;143;51.634;7.112;2023-11-21T05:31:09;23.17;;;13.37;;
313;SDS011;143;51.634;7.112;2023-11-21T05:33:35;27.37;;;12.80;;
313;SDS011;143;51.634;7.112;2023-11-21T05:36:01;28.17;;;14.13;;
313;SDS011;143;51.634;7.112;2023-11-21T05:38:27;21.03;;;12.00;;
313;SDS011;143;51.634;7.112;2023-11-21T05:40:52;24.37;;;12.13;;
313;SDS011;143;51.634;7.112;2023-11-21T05:43:19;22.90;;;12.43;;
313;SDS011;143;51.634;7.112;2023-11-21T05:45:45;28.10;;;14.20;;
313;SDS011;143;51.634;7.112;2023-11-21T05:48:10;26.60;;;13.53;;
313;SDS011;143;51.634;7.112;2023-11-21T05:50:36;27.60;;;13.73;;
313;SDS011;143;51.634;7.112;2023-11-21T05:53:03;27.60;;;13.30;;
313;SDS011;143;51.634;7.112;2023-11-21T05:55:28;25.37;;;14.90;;
313;SDS011;143;51.634;7.112;2023-11-21T05:57:54;25.47;;;13.60;;
313;SDS011;143;51.634;7.112;2023-11-21T06:00:19;25.67;;;13.50;;
313;SDS011;143;51.634;7.112;2023-11-21T06:02:47;24.20;;;11.33;;
313;SDS011;143;51.634;7.112;2023-11-21T06:05:15;28.50;;;13.50;;
313;SDS011;143;51.634;7.112;2023-11-21T06:07:42;24.70;;;12.27;;
313;SDS011;143;51.634;7.112;2023-11-21T06:10:08;31.20;;;13.70;;
313;SDS011;143;51.634;7.112;2023-11-21T06:12:37;36.83;;;15.33;;
313;SDS011;143;51.634;7.112;2023-11-21T06:15:03;28.80;;;15.77;;
313;SDS011;143;51.634;7.112;2023-11-21T06:17:30;27.00;;;15.27;;
313;SDS011;143;51.634;7.112;2023-11-21T06:19:56;37.17;;;15.20;;
313;SDS011;143;51.634;7.112;2023-11-21T06:22:22;26.17;;;15.73;;
313;SDS011;143;51.634;7.112;2023-11-21T06:24:47;24.37;;;13.37;;
313;SDS011;143;51.634;7.112;2023-11-21T06:27:13;30.00;;;16.27;;
313;SDS011;143;51.634;7.112;2023-11-21T06:29:38;28.33;;;14.80;;
313;SDS011;143;51.634;7.112;2023-11-21T06:32:04;35.40;;;14.97;;
313;SDS011;143;51.634;7.112;2023-11-21T06:34:30;35.53;;;17.20;;
313;SDS011;143;51.634;7.112;2023-11-21T06:36:56;33.20;;;16.83;;
313;SDS011;143;51.634;7.112;2023-11-21T06:39:21;33.70;;;15.83;;
313;SDS011;143;51.634;7.112;2023-11-21T06:41:49;31.30;;;15.83;;
313;SDS011;143;51.634;7.112;2023-11-21T06:44:14;34.10;;;16.50;;
313;SDS011;143;51.634;7.112;2023-11-21T06:46:40;37.40;;;17.53;;
313;SDS011;143;51.634;7.112;2023-11-21T06:49:07;34.17;;;16.17;;
313;SDS011;143;51.634;7.112;2023-11-21T06:51:33;41.83;;;15.97;;
313;SDS011;143;51.634;7.112;2023-11-21T06:53:58;37.03;;;17.63;;
313;SDS011;143;51.634;7.112;2023-11-21T06:56:24;34.60;;;19.17;;
313;SDS011;143;51.634;7.112;2023-11-21T06:58:50;36.93;;;18.50;;
313;SDS011;143;51.634;7.112;2023-11-21T07:01:18;35.93;;;17.47;;
313;SDS011;143;51.634;7.112;2023-11-21T07:03:45;37.50;;;17.30;;
313;SDS011;143;51.634;7.112;2023-11-21T07:06:10;31.33;;;16.50;;
313;SDS011;143;51.634;7.112;2023-11-21T07:08:36;39.23;;;17.47;;
313;SDS011;143;51.634;7.112;2023-11-21T07:11:02;31.80;;;16.33;;
313;SDS011;143;51.634;7.112;2023-11-21T07:13:29;38.80;;;18.30;;
313;SDS011;143;51.634;7.112;2023-11-21T07:15:55;38.60;;;18.63;;
313;SDS011;143;51.634;7.112;2023-11-21T07:18:21;52.00;;;21.23;;
313;SDS011;143;51.634;7.112;2023-11-21T07:20:46;46.40;;;21.43;;
313;SDS011;143;51.634;7.112;2023-11-21T07:23:12;57.30;;;22.37;;
313;SDS011;143;51.634;7.112;2023-11-21T07:25:37;59.50;;;23.57;;
313;SDS011;143;51.634;7.112;2023-11-21T07:28:03;49.93;;;23.03;;
313;SDS011;143;51.634;7.112;2023-11-21T07:30:30;51.43;;;22.73;;
313;SDS011;143;51.634;7.112;2023-11-21T07:32:56;61.03;;;24.47;;
313;SDS011;143;51.634;7.112;2023-11-21T07:35:21;63.10;;;25.17;;
313;SDS011;143;51.634;7.112;2023-11-21T07:37:47;70.60;;;23.23;;
313;SDS011;143;51.634;7.112;2023-11-21T07:40:13;47.83;;;21.93;;
313;SDS011;143;51.634;7.112;2023-11-21T07:42:39;48.60;;;22.80;;
313;SDS011;143;51.634;7.112;2023-11-21T07:45:07;46.57;;;20.87;;
313;SDS011;143;51.634;7.112;2023-11-21T07:47:33;62.33;;;25.20;;
313;SDS011;143;51.634;7.112;2023-11-21T07:49:59;53.33;;;23.17;;
313;SDS011;143;51.634;7.112;2023-11-21T07:52:25;48.10;;;21.53;;
313;SDS011;143;51.634;7.112;2023-11-21T07:54:51;43.83;;;21.53;;
313;SDS011;143;51.634;7.112;2023-11-21T07:57:16;46.47;;;23.20;;
313;SDS011;143;51.634;7.112;2023-11-21T07:59:42;39.47;;;20.70;;
313;SDS011;143;51.634;7.112;2023-11-21T08:02:07;37.93;;;19.20;;
313;SDS011;143;51.634;7.112;2023-11-21T08:04:33;35.40;;;18.77;;
313;SDS011;143;51.634;7.112;2023-11-21T08:07:00;38.07;;;19.90;;
313;SDS011;143;51.634;7.112;2023-11-21T08:09:26;31.03;;;18.90;;
313;SDS011;143;51.634;7.112;2023-11-21T08:11:52;31.30;;;18.60;;
313;SDS011;143;51.634;7.112;2023-11-21T08:14:18;35.07;;;19.97;;
313;SDS011;143;51.634;7.112;2023-11-21T08:16:45;34.50;;;18.17;;
313;SDS011;143;51.634;7.112;2023-11-21T08:19:10;30.70;;;17.60;;
313;SDS011;143;51.634;7.112;2023-11-21T08:21:36;34.10;;;17.60;;
313;SDS011;143;51.634;7.112;2023-11-21T08:24:05;30.50;;;17.10;;
313;SDS011;143;51.634;7.112;2023-11-21T08:26:31;28.30;;;15.93;;
313;SDS011;143;51.634;7.112;2023-11-21T08:28:57;31.47;;;16.97;;
313;SDS011;143;51.634;7.112;2023-11-21T08:31:24;32.63;;;17.03;;
313;SDS011;143;51.634;7.112;2023-11-21T08:33:53;31.30;;;17.47;;
313;SDS011;143;51.634;7.112;2023-11-21T08:36:20;33.53;;;18.47;;
313;SDS011;143;51.634;7.112;2023-11-21T08:38:49;31.83;;;17.63;;
313;SDS011;143;51.634;7.112;2023-11-21T08:41:15;33.67;;;18.70;;
313;SDS011;143;51.634;7.112;2023-11-21T08:43:41;32.10;;;17.90;;
313;SDS011;143;51.634;7.112;2023-11-21T08:46:07;30.00;;;16.53;;
313;SDS011;143;51.634;7.112;2023-11-21T08:48:36;29.37;;;16.90;;
313;SDS011;143;51.634;7.112;2023-11-21T08:51:02;34.60;;;18.83;;
313;SDS011;143;51.634;7.112;2023-11-21T08:53:29;27.70;;;16.90;;
313;SDS011;143;51.634;7.112;2023-11-21T08:55:55;39.37;;;18.83;;
313;SDS011;143;51.634;7.112;2023-11-21T08:58:21;32.77;;;18.70;;
313;SDS011;143;51.634;7.112;2023-11-21T09:00:47;34.90;;;19.63;;
313;SDS011;143;51.634;7.112;2023-11-21T09:03:13;33.03;;;17.97;;
313;SDS011;143;51.634;7.112;2023-11-21T09:05:38;34.17;;;17.50;;
313;SDS011;143;51.634;7.112;2023-11-21T09:08:05;32.60;;;17.73;;
313;SDS011;143;51.634;7.112;2023-11-21T09:10:31;34.00;;;17.83;;
313;SDS011;143;51.634;7.112;2023-11-21T09:13:00;38.60;;;21.50;;
313;SDS011;143;51.634;7.112;2023-11-21T09:15:26;40.17;;;20.00;;
313;SDS011;143;51.634;7.112;2023-11-21T09:17:52;37.90;;;20.33;;
313;SDS011;143;51.634;7.112;2023-11-21T09:20:18;46.20;;;21.30;;
313;SDS011;143;51.634;7.112;2023-11-21T09:22:47;53.90;;;23.67;;
313;SDS011;143;51.634;7.112;2023-11-21T09:25:13;51.67;;;24.13;;
313;SDS011;143;51.634;7.112;2023-11-21T09:27:39;44.63;;;22.57;;
313;SDS011;143;51.634;7.112;2023-11-21T09:30:06;46.87;;;22.57;;
313;SDS011;143;51.634;7.112;2023-11-21T09:32:34;40.77;;;21.10;;
313;SDS011;143;51.634;7.112;2023-11-21T09:35:02;42.47;;;21.80;;
313;SDS011;143;51.634;7.112;2023-11-21T09:37:28;55.13;;;24.93;;
313;SDS011;143;51.634;7.112;2023-11-21T09:39:55;43.33;;;22.97;;
313;SDS011;143;51.634;7.112;2023-11-21T09:42:23;55.53;;;24.37;;
313;SDS011;143;51.634;7.112;2023-11-21T09:45:03;62.20;;;23.37;;
313;SDS011;143;51.634;7.112;2023-11-21T09:47:38;42.93;;;22.40;;
313;SDS011;143;51.634;7.112;2023-11-21T09:50:04;40.63;;;22.53;;
313;SDS011;143;51.634;7.112;2023-11-21T09:52:38;72.90;;;21.90;;
313;SDS011;143;51.634;7.112;2023-11-21T09:55:27;67.23;;;23.60;;
313;SDS011;143;51.634;7.112;2023-11-21T09:58:00;97.07;;;24.03;;
313;SDS011;143;51.634;7.112;2023-11-21T10:00:27;49.50;;;24.43;;
313;SDS011;143;51.634;7.112;2023-11-21T10:02:57;53.83;;;25.97;;
313;SDS011;143;51.634;7.112;2023-11-21T10:05:23;57.80;;;27.57;;
313;SDS011;143;51.634;7.112;2023-11-21T10:07:49;67.73;;;29.47;;
313;SDS011;143;51.634;7.112;2023-11-21T10:10:16;49.77;;;24.83;;
313;SDS011;143;51.634;7.112;2023-11-21T10:12:44;59.63;;;26.47;;
313;SDS011;143;51.634;7.112;2023-11-21T10:15:14;61.43;;;26.53;;
313;SDS011;143;51.634;7.112;2023-11-21T10:17:41;72.37;;;31.50;;
313;SDS011;143;51.634;7.112;2023-11-21T10:20:13;70.20;;;30.27;;
313;SDS011;143;51.634;7.112;2023-11-21T10:22:42;65.33;;;29.40;;
313;SDS011;143;51.634;7.112;2023-11-21T10:25:11;58.27;;;26.73;;
313;SDS011;143;51.634;7.112;2023-11-21T10:27:39;66.20;;;28.77;;
313;SDS011;143;51.634;7.112;2023-11-21T10:30:09;70.70;;;31.33;;
313;SDS011;143;51.634;7.112;2023-11-21T10:32:38;63.13;;;29.70;;
313;SDS011;143;51.634;7.112;2023-11-21T10:35:05;66.10;;;30.90;;
313;SDS011;143;51.634;7.112;2023-11-21T10:37:35;67.37;;;31.97;;
313;SDS011;143;51.634;7.112;2023-11-21T10:40:04;68.60;;;29.83;;
313;SDS011;143;51.634;7.112;2023-11-21T10:42:32;66.77;;;31.47;;
313;SDS011;143;51.634;7.112;2023-11-21T10:44:57;66.73;;;32.43;;
313;SDS011;143;51.634;7.112;2023-11-21T10:47:23;66.07;;;31.67;;
313;SDS011;143;51.634;7.112;2023-11-21T10:49:49;54.90;;;25.60;;
313;SDS011;143;51.634;7.112;2023-11-21T10:52:15;48.80;;;24.70;;
313;SDS011;143;51.634;7.112;2023-11-21T10:54:42;53.67;;;24.47;;
313;SDS011;143;51.634;7.112;2023-11-21T10:57:08;42.13;;;21.13;;
313;SDS011;143;51.634;7.112;2023-11-21T10:59:35;41.53;;;22.33;;
313;SDS011;143;51.634;7.112;2023-11-21T11:02:01;41.27;;;21.00;;
313;SDS011;143;51.634;7.112;2023-11-21T11:04:41;39.33;;;20.67;;
313;SDS011;143;51.634;7.112;2023-11-21T11:07:08;39.93;;;20.10;;
313;SDS011;143;51.634;7.112;2023-11-21T11:09:38;42.30;;;19.90;;
313;SDS011;143;51.634;7.112;2023-11-21T11:12:04;38.30;;;19.40;;
313;SDS011;143;51.634;7.112;2023-11-21T11:14:31;45.60;;;20.30;;
313;SDS011;143;51.634;7.112;2023-11-21T11:16:57;37.70;;;19.60;;
313;SDS011;143;51.634;7.112;2023-11-21T11:19:24;34.03;;;17.87;;
313;SDS011;143;51.634;7.112;2023-11-21T11:22:13;44.03;;;19.50;;
313;SDS011;143;51.634;7.112;2023-11-21T11:24:58;41.07;;;19.80;;
313;SDS011;143;51.634;7.112;2023-11-21T11:27:33;38.43;;;17.80;;
313;SDS011;143;51.634;7.112;2023-11-21T11:35:56;40.77;;;19.40;;
313;SDS011;143;51.634;7.112;2023-11-21T11:38:32;37.40;;;20.13;;
313;SDS011;143;51.634;7.112;2023-11-21T11:41:04;38.70;;;19.73;;
313;SDS011;143;51.634;7.112;2023-11-21T11:43:30;48.10;;;19.43;;
313;SDS011;143;51.634;7.112;2023-11-21T11:46:09;30.53;;;17.67;;
313;SDS011;143;51.634;7.112;2023-11-21T11:48:38;39.67;;;20.70;;
313;SDS011;143;51.634;7.112;2023-11-21T11:51:14;31.80;;;17.70;;
313;SDS011;143;51.634;7.112;2023-11-21T11:53:42;38.70;;;19.07;;
313;SDS011;143;51.634;7.112;2023-11-21T11:58:47;38.27;;;18.40;;
313;SDS011;143;51.634;7.112;2023-11-21T12:01:13;36.50;;;19.63;;
313;SDS011;143;51.634;7.112;2023-11-21T12:03:38;35.23;;;18.97;;
313;SDS011;143;51.634;7.112;2023-11-21T12:06:04;36.23;;;21.00;;
313;SDS011;143;51.634;7.112;2023-11-21T12:08:31;33.23;;;19.30;;
313;SDS011;143;51.634;7.112;2023-11-21T12:10:57;34.07;;;18.20;;
313;SDS011;143;51.634;7.112;2023-11-21T12:13:23;30.07;;;17.27;;
313;SDS011;143;51.634;7.112;2023-11-21T12:15:49;29.63;;;16.10;;
313;SDS011;143;51.634;7.112;2023-11-21T12:18:14;33.13;;;16.80;;
313;SDS011;143;51.634;7.112;2023-11-21T12:20:40;31.10;;;15.03;;
313;SDS011;143;51.634;7.112;2023-11-21T12:23:07;31.10;;;17.40;;
313;SDS011;143;51.634;7.112;2023-11-21T12:25:34;28.87;;;16.20;;
313;SDS011;143;51.634;7.112;2023-11-21T12:28:01;27.73;;;17.17;;
313;SDS011;143;51.634;7.112;2023-11-21T12:30:31;28.17;;;15.20;;
313;SDS011;143;51.634;7.112;2023-11-21T12:33:00;23.80;;;13.33;;
313;SDS011;143;51.634;7.112;2023-11-21T12:35:28;21.70;;;13.13;;
313;SDS011;143;51.634;7.112;2023-11-21T12:37:55;25.80;;;13.87;;
313;SDS011;143;51.634;7.112;2023-11-21T12:40:24;28.50;;;14.93;;
313;SDS011;143;51.634;7.112;2023-11-21T12:42:54;26.83;;;15.03;;
313;SDS011;143;51.634;7.112;2023-11-21T12:50:15;33.30;;;15.17;;
313;SDS011;143;51.634;7.112;2023-11-21T12:52:46;32.00;;;14.50;;
313;SDS011;143;51.634;7.112;2023-11-21T12:55:13;24.93;;;13.53;;
313;SDS011;143;51.634;7.112;2023-11-21T12:57:41;29.20;;;14.43;;
313;SDS011;143;51.634;7.112;2023-11-21T13:00:08;27.40;;;14.63;;
313;SDS011;143;51.634;7.112;2023-11-21T13:02:38;30.33;;;13.23;;
313;SDS011;143;51.634;7.112;2023-11-21T13:05:07;34.00;;;18.03;;
313;SDS011;143;51.634;7.112;2023-11-21T13:07:43;37.23;;;20.43;;
313;SDS011;143;51.634;7.112;2023-11-21T13:10:12;32.63;;;17.57;;
313;SDS011;143;51.634;7.112;2023-11-21T13:12:47;30.17;;;16.27;;
313;SDS011;143;51.634;7.112;2023-11-21T13:15:14;26.47;;;13.50;;
313;SDS011;143;51.634;7.112;2023-11-21T13:17:42;20.23;;;11.03;;
313;SDS011;143;51.634;7.112;2023-11-21T13:20:10;25.17;;;13.37;;
313;SDS011;143;51.634;7.112;2023-11-21T13:22:44;28.03;;;12.83;;
313;SDS011;143;51.634;7.112;2023-11-21T13:25:22;28.13;;;13.30;;
313;SDS011;143;51.634;7.112;2023-11-21T13:27:48;24.00;;;12.70;;
313;SDS011;143;51.634;7.112;2023-11-21T13:30:15;26.20;;;14.60;;
313;SDS011;143;51.634;7.112;2023-11-21T13:32:44;21.90;;;12.90;;
313;SDS011;143;51.634;7.112;2023-11-21T13:35:16;27.23;;;14.60;;
313;SDS011;143;51.634;7.112;2023-11-21T13:37:55;28.13;;;15.20;;
313;SDS011;143;51.634;7.112;2023-11-21T13:40:24;26.23;;;13.10;;
313;SDS011;143;51.634;7.112;2023-11-21T13:42:55;24.30;;;13.30;;
313;SDS011;143;51.634;7.112;2023-11-21T13:45:24;24.47;;;13.93;;
313;SDS011;143;51.634;7.112;2023-11-21T13:47:51;23.60;;;11.17;;
313;SDS011;143;51.634;7.112;2023-11-21T13:50:23;23.00;;;11.90;;
313;SDS011;143;51.634;7.112;2023-11-21T13:52:53;27.77;;;14.27;;
313;SDS011;143;51.634;7.112;2023-11-21T13:55:19;24.30;;;12.77;;
313;SDS011;143;51.634;7.112;2023-11-21T13:57:46;24.20;;;12.17;;
313;SDS011;143;51.634;7.112;2023-11-21T14:00:17;19.10;;;9.53;;
313;SDS011;143;51.634;7.112;2023-11-21T14:03:06;24.73;;;11.97;;
313;SDS011;143;51.634;7.112;2023-11-21T14:05:42;19.50;;;10.63;;
313;SDS011;143;51.634;7.112;2023-11-21T14:08:09;21.83;;;11.70;;
313;SDS011;143;51.634;7.112;2023-11-21T14:10:37;25.00;;;13.30;;
313;SDS011;143;51.634;7.112;2023-11-21T14:13:08;21.80;;;11.80;;
313;SDS011;143;51.634;7.112;2023-11-21T14:15:35;24.83;;;13.17;;
313;SDS011;143;51.634;7.112;2023-11-21T14:18:06;20.77;;;11.67;;
313;SDS011;143;51.634;7.112;2023-11-21T14:20:35;22.07;;;12.40;;
313;SDS011;143;51.634;7.112;2023-11-21T14:23:02;18.23;;;10.97;;
313;SDS011;143;51.634;7.112;2023-11-21T14:25:32;21.43;;;10.73;;
313;SDS011;143;51.634;7.112;2023-11-21T14:27:58;22.77;;;10.37;;
313;SDS011;143;51.634;7.112;2023-11-21T14:30:24;14.20;;;8.47;;
313;SDS011;143;51.634;7.112;2023-11-21T14:32:51;15.30;;;9.07;;
313;SDS011;143;51.634;7.112;2023-11-21T14:35:16;17.27;;;9.00;;
313;SDS011;143;51.634;7.112;2023-11-21T14:37:42;19.43;;;9.13;;
313;SDS011;143;51.634;7.112;2023-11-21T14:40:09;14.03;;;7.67;;
313;SDS011;143;51.634;7.112;2023-11-21T14:42:35;13.07;;;7.67;;
313;SDS011;143;51.634;7.112;2023-11-21T14:45:04;13.00;;;6.60;;
313;SDS011;143;51.634;7.112;2023-11-21T14:47:32;10.97;;;7.60;;
313;SDS011;143;51.634;7.112;2023-11-21T14:49:59;10.83;;;6.27;;
313;SDS011;143;51.634;7.112;2023-11-21T14:52:47;10.27;;;6.93;;
313;SDS011;143;51.634;7.112;2023-11-21T14:55:23;11.90;;;6.03;;
313;SDS011;143;51.634;7.112;2023-11-21T14:57:55;11.50;;;7.63;;
313;SDS011;143;51.634;7.112;2023-11-21T15:00:21;9.23;;;5.97;;
313;SDS011;143;51.634;7.112;2023-11-21T15:02:58;8.87;;;5.87;;
313;SDS011;143;51.634;7.112;2023-11-21T15:05:24;9.47;;;6.73;;
313;SDS011;143;51.634;7.112;2023-11-21T15:07:52;10.30;;;6.93;;
313;SDS011;143;51.634;7.112;2023-11-21T15:10:21;9.50;;;6.57;;
313;SDS011;143;51.634;7.112;2023-11-21T15:12:54;14.70;;;9.20;;
313;SDS011;143;51.634;7.112;2023-11-21T15:15:19;13.43;;;9.10;;
313;SDS011;143;51.634;7.112;2023-11-21T15:17:46;14.97;;;8.70;;
313;SDS011;143;51.634;7.112;2023-11-21T15:20:12;14.73;;;8.97;;
313;SDS011;143;51.634;7.112;2023-11-21T15:22:44;18.20;;;8.50;;
313;SDS011;143;51.634;7.112;2023-11-21T15:25:10;15.13;;;8.60;;
313;SDS011;143;51.634;7.112;2023-11-21T15:27:35;14.17;;;8.40;;
313;SDS011;143;51.634;7.112;2023-11-21T15:30:02;15.70;;;9.27;;
313;SDS011;143;51.634;7.112;2023-11-21T15:32:30;13.37;;;8.93;;